M I D A S
Marine Information and Data Acquisition System
Tripno 878 of the Zeeleeuw from 2005-04-06 07:09:20 to 2005-04-06 10:59:48
Back to CruiseResearch ActivitiesStationsMapUnderway DataData graphs

EquipmentUnitsComment
TimeDGPSUTC
LatitudeDGPSDM.mWGS84
LongitudeDGPSDM.mWGS84
HeadingGyrodeg 
SOGDGPSknotsSpeed over ground
COGDGPSdegCourse over ground
DepthEcho soundermeters200 kHz
Missing or incorrect values are displayed as -999
Navigation data collected by the RV Zeeleeuw from 2005-04-06 07:07:31 to 2005-04-06 11:13:34
Time Latitude Longitude Heading SOG COG Depth
2005-04-06 07:08:37 51°13.619 2°56.021 119 4 297 -999
2005-04-06 07:09:37 51°13.656 2°55.913 118.2 4.8 297 -999
2005-04-06 07:10:37 51°13.675 2°55.798 99.6 4.1 281 -999
2005-04-06 07:11:36 51°13.687 2°55.792 45.9 1.8 36 10.6
2005-04-06 07:12:37 51°13.7 2°55.798 8.6 1.4 13 -999
2005-04-06 07:13:37 51°13.717 2°55.781 317.9 3.6 315 11.3
2005-04-06 07:14:37 51°13.774 2°55.682 320 5.9 319 9.4
2005-04-06 07:15:37 51°13.874 2°55.593 338.6 7.5 335 9.5
2005-04-06 07:16:36 51°13.995 2°55.51 340 8.3 337 9.5
2005-04-06 07:17:37 51°14.13 2°55.411 338.3 9.1 334 9.4
2005-04-06 07:18:37 51°14.259 2°55.266 320 9.8 316 10
2005-04-06 07:19:37 51°14.371 2°55.052 311.3 11.3 307 9.7
2005-04-06 07:20:37 51°14.436 2°54.772 289.9 9.5 286 10.1
2005-04-06 07:21:37 51°14.457 2°54.604 281.2 4.9 280 10.3
2005-04-06 07:22:37 51°14.462 2°54.508 274.9 3.1 273 10.3
2005-04-06 07:23:37 51°14.463 2°54.44 274.7 2.2 273 10.3
2005-04-06 07:24:37 51°14.465 2°54.39 274.3 1.7 277 10.3
2005-04-06 07:25:37 51°14.468 2°54.351 272.9 1.3 276 10.3
2005-04-06 07:26:36 51°14.47 2°54.322 270.7 1 281 10.2
2005-04-06 07:27:37 51°14.472 2°54.298 269.9 0.8 276 10.3
2005-04-06 07:28:36 51°14.475 2°54.281 268.7 0.6 292 10.3
2005-04-06 07:29:37 51°14.48 2°54.267 271.8 0.6 308 10.3
2005-04-06 07:30:37 51°14.485 2°54.213 271.7 4.6 270 10.2
2005-04-06 07:31:36 51°14.482 2°54.084 275.6 5.4 274 9.8
2005-04-06 07:32:37 51°14.486 2°53.933 265.6 6.1 258 9.8
2005-04-06 07:33:37 51°14.4 2°53.75 231.8 10.1 231 9.7
2005-04-06 07:34:36 51°14.28 2°53.513 232.2 12 231 9.6
2005-04-06 07:35:37 51°14.169 2°53.243 238.9 12.1 237 9.7
2005-04-06 07:36:37 51°14.06 2°52.97 239.3 12.2 238 10.2
2005-04-06 07:37:36 51°13.954 2°52.696 241 12.2 240 10.4
2005-04-06 07:38:37 51°13.849 2°52.413 241.3 12.3 240 10.6
2005-04-06 07:39:37 51°13.743 2°52.123 240.7 13.3 239 10.6
2005-04-06 07:40:37 51°13.628 2°51.81 240.7 13.8 239 10.7
2005-04-06 07:41:37 51°13.51 2°51.49 241.5 13.8 240 10.8
2005-04-06 07:42:35 51°13.399 2°51.186 240.8 13.7 240 11
2005-04-06 07:43:37 51°13.279 2°50.86 240.7 13.7 240 11.2
2005-04-06 07:44:37 51°13.165 2°50.55 241.5 13.7 240 11.2
2005-04-06 07:45:36 51°13.052 2°50.238 241.7 13.7 241 11.3
2005-04-06 07:46:36 51°12.933 2°49.929 238.8 13.7 238 11.4
2005-04-06 07:47:37 51°12.811 2°49.618 239.4 13.7 238 11.7
2005-04-06 07:48:37 51°12.691 2°49.31 239.5 13.7 239 11.7
2005-04-06 07:49:36 51°12.573 2°49.004 239.5 13.6 238 11.9
2005-04-06 07:50:37 51°12.453 2°48.694 238.9 13.6 238 12
2005-04-06 07:51:37 51°12.333 2°48.387 238.9 13.6 237 12
2005-04-06 07:52:37 51°12.214 2°48.081 239.3 13.5 238 12.1
2005-04-06 07:53:36 51°12.096 2°47.779 238.9 13.5 238 12
2005-04-06 07:54:37 51°11.975 2°47.473 239.1 13.5 238 11.8
2005-04-06 07:55:37 51°11.857 2°47.172 239.5 13.3 238 11.6
2005-04-06 07:56:36 51°11.747 2°46.872 244.8 13.4 243 11.5
2005-04-06 07:57:37 51°11.65 2°46.55 246 13.2 244 11.6
2005-04-06 07:58:37 51°11.554 2°46.233 245.5 13.2 244 11.7
2005-04-06 07:59:37 51°11.456 2°45.92 245.6 13.2 244 11.5
2005-04-06 08:00:37 51°11.359 2°45.609 244.9 13.1 244 11.5
2005-04-06 08:01:36 51°11.265 2°45.3 245.9 13 244 11.2
2005-04-06 08:02:37 51°11.169 2°44.988 244.8 13.1 244 11
2005-04-06 08:03:37 51°11.073 2°44.678 245.3 13 244 10.9
2005-04-06 08:04:37 51°10.988 2°44.361 249.7 13 248 10.9
2005-04-06 08:05:37 51°10.906 2°44.041 249.2 13 247 10.8
2005-04-06 08:06:36 51°10.824 2°43.727 249.1 13 247 10.8
2005-04-06 08:07:37 51°10.741 2°43.409 249.3 12.9 248 10.7
2005-04-06 08:08:37 51°10.659 2°43.095 249.4 12.8 247 10.6
2005-04-06 08:09:37 51°10.578 2°42.782 249.4 12.8 248 10.5
2005-04-06 08:10:35 51°10.499 2°42.481 249.6 12.7 247 10.5
2005-04-06 08:11:37 51°10.414 2°42.161 248.8 12.6 247 10.6
2005-04-06 08:12:35 51°10.336 2°41.863 249.5 12.6 248 10.6
2005-04-06 08:13:36 51°10.254 2°41.546 249.2 12.6 248 10.7
2005-04-06 08:14:36 51°10.175 2°41.239 249.3 12.6 247 10.8
2005-04-06 08:15:37 51°10.094 2°40.928 249 12.6 247 10.9
2005-04-06 08:16:37 51°10.013 2°40.621 248.9 12.6 247 11
2005-04-06 08:17:36 51°9.932 2°40.317 248.9 12.5 246 11.1
2005-04-06 08:18:37 51°9.849 2°40.009 249.8 12.5 248 11.2
2005-04-06 08:19:37 51°9.768 2°39.706 249.7 12.4 247 11.2
2005-04-06 08:20:37 51°9.686 2°39.405 249.5 12.4 247 11.3
2005-04-06 08:21:37 51°9.604 2°39.104 249.4 12.4 246 11.4
2005-04-06 08:22:36 51°9.523 2°38.806 249.7 12.3 247 11.5
2005-04-06 08:23:37 51°9.439 2°38.506 248.6 12.3 246 11.7
2005-04-06 08:24:37 51°9.357 2°38.21 249.4 12.3 246 11.7
2005-04-06 08:25:37 51°9.293 2°37.946 252.1 8.9 250 11.8
2005-04-06 08:26:37 51°9.237 2°37.797 244.4 5.9 241 11.7
2005-04-06 08:27:37 51°9.185 2°37.683 237.1 5.1 234 11.7
2005-04-06 08:28:37 51°9.142 2°37.545 250.6 6.1 249 11.5
2005-04-06 08:29:37 51°9.108 2°37.379 259.1 6.7 258 11.5
2005-04-06 08:30:35 51°9.095 2°37.223 267.5 4.6 266 11.6
2005-04-06 08:31:37 51°9.073 2°37.163 226.1 1 198 11.5
2005-04-06 08:32:37 51°9.057 2°37.164 216.5 1 179 11.4
2005-04-06 08:33:35 51°9.047 2°37.156 245.2 0.7 247 11.4
2005-04-06 08:34:37 51°9.052 2°37.13 275.1 1.4 306 11.4
2005-04-06 08:35:37 51°9.075 2°37.102 298.1 2 330 11.6
2005-04-06 08:36:37 51°9.112 2°37.082 317.7 2.6 347 12
2005-04-06 08:37:37 51°9.159 2°37.076 336.4 3 1 12.6
2005-04-06 08:38:37 51°9.214 2°37.095 1.6 3.6 21 13.1
2005-04-06 08:39:35 51°9.263 2°37.147 28.4 3.6 40 13.7
2005-04-06 08:40:37 51°9.306 2°37.228 62.5 4.3 64 13.9
2005-04-06 08:41:37 51°9.304 2°37.347 131.5 4.7 116 13.5
2005-04-06 08:42:37 51°9.246 2°37.383 215.9 3.4 208 12.8
2005-04-06 08:43:37 51°9.21 2°37.286 243.9 5.2 240 12.7
2005-04-06 08:44:37 51°9.167 2°37.182 240.7 3.1 237 12.6
2005-04-06 08:45:37 51°9.172 2°37.167 291.1 1 25 12.7
2005-04-06 08:46:37 51°9.193 2°37.184 300.8 1.4 29 12.8
2005-04-06 08:47:37 51°9.212 2°37.205 291.8 1.4 39 13
2005-04-06 08:48:37 51°9.229 2°37.23 284.4 1.4 47 13.2
2005-04-06 08:49:37 51°9.245 2°37.259 280.9 1.5 49 13.3
2005-04-06 08:50:37 51°9.26 2°37.289 279 1.5 51 13.4
2005-04-06 08:51:37 51°9.276 2°37.32 273.5 1.5 52 13.5
2005-04-06 08:52:35 51°9.292 2°37.35 272.4 1.6 51 13.6
2005-04-06 08:53:36 51°9.308 2°37.383 271.6 1.6 51 13.7
2005-04-06 08:54:37 51°9.325 2°37.417 272.1 1.6 51 13.8
2005-04-06 08:55:37 51°9.343 2°37.451 274.8 1.8 49 13.9
2005-04-06 08:56:36 51°9.362 2°37.486 279.7 1.8 50 14
2005-04-06 08:57:37 51°9.383 2°37.524 282.9 1.8 49 14
2005-04-06 08:58:37 51°9.402 2°37.56 282.4 1.8 50 14.1
2005-04-06 08:59:37 51°9.423 2°37.597 282.6 1.8 48 14.1
2005-04-06 09:00:37 51°9.443 2°37.632 279.8 1.8 48 14.3
2005-04-06 09:01:37 51°9.463 2°37.668 279.7 1.8 48 14.4
2005-04-06 09:02:37 51°9.483 2°37.704 280.2 1.9 48 14.5
2005-04-06 09:03:37 51°9.504 2°37.741 281.2 1.9 48 14.6
2005-04-06 09:04:37 51°9.525 2°37.777 280 1.8 50 14.8
2005-04-06 09:05:37 51°9.546 2°37.815 278.2 1.9 48 14.8
2005-04-06 09:06:38 51°9.569 2°37.845 281.4 1.5 24 15.1
2005-04-06 09:07:37 51°9.577 2°37.787 253.3 2.6 256 15.5
2005-04-06 09:08:37 51°9.559 2°37.732 240.6 2.3 237 15.4
2005-04-06 09:09:35 51°9.534 2°37.688 234.3 2.3 224 15.3
2005-04-06 09:10:37 51°9.514 2°37.639 246 2.1 246 15.2
2005-04-06 09:11:37 51°9.508 2°37.578 258.6 2.5 265 15.4
2005-04-06 09:12:37 51°9.508 2°37.507 259 2.7 269 15.8
2005-04-06 09:13:37 51°9.517 2°37.434 271.1 3 288 16.2
2005-04-06 09:14:35 51°9.52 2°37.369 250.1 2.2 253 16.7
2005-04-06 09:15:37 51°9.498 2°37.318 237 2.3 232 16.7
2005-04-06 09:16:37 51°9.475 2°37.266 240.9 2.4 237 16.7
2005-04-06 09:17:37 51°9.452 2°37.212 240.5 2.5 237 16.6
2005-04-06 09:18:37 51°9.429 2°37.157 238.8 2.5 234 16.5
2005-04-06 09:19:37 51°9.403 2°37.107 236.8 2.5 230 16.5
2005-04-06 09:20:37 51°9.376 2°37.056 237.1 2.5 230 16.3
2005-04-06 09:21:37 51°9.35 2°37.005 237.6 2.5 231 16.2
2005-04-06 09:22:37 51°9.325 2°36.955 237.2 2.4 233 16
2005-04-06 09:23:37 51°9.298 2°36.904 237 2.5 230 15.9
2005-04-06 09:24:37 51°9.271 2°36.852 237.3 2.5 230 15.8
2005-04-06 09:25:37 51°9.244 2°36.8 237.6 2.5 231 15.7
2005-04-06 09:26:37 51°9.219 2°36.746 239.8 2.6 235 15.5
2005-04-06 09:27:37 51°9.196 2°36.69 240.2 2.5 236 15.5
2005-04-06 09:28:37 51°9.172 2°36.635 238.7 2.5 235 15.4
2005-04-06 09:29:37 51°9.149 2°36.581 239.5 2.5 235 15.3
2005-04-06 09:30:37 51°9.125 2°36.526 239.7 2.6 237 15.2
2005-04-06 09:31:37 51°9.108 2°36.465 250.6 2.8 256 15.3
2005-04-06 09:32:37 51°9.102 2°36.385 259.3 3 270 15.7
2005-04-06 09:33:37 51°9.114 2°36.303 273 3.3 291 16.4
2005-04-06 09:34:35 51°9.137 2°36.23 277.7 2.6 302 17.3
2005-04-06 09:35:37 51°9.172 2°36.165 298.7 4.3 316 18
2005-04-06 09:36:37 51°9.285 2°36.181 19.2 6.9 28 18.4
2005-04-06 09:37:37 51°9.354 2°36.3 56.8 5.8 55 18.2
2005-04-06 09:38:37 51°9.394 2°36.427 73.5 5.2 67 18.2
2005-04-06 09:39:37 51°9.424 2°36.551 80.8 4.9 70 18.2
2005-04-06 09:40:37 51°9.45 2°36.673 86.7 4.6 73 18.3
2005-04-06 09:41:37 51°9.471 2°36.781 91.5 4 73 18.6
2005-04-06 09:42:37 51°9.49 2°36.871 92 3.4 69 18.4
2005-04-06 09:43:37 51°9.511 2°36.948 89.1 3 65 18.4
2005-04-06 09:44:37 51°9.531 2°37.014 91.7 2.6 62 18.4
2005-04-06 09:45:37 51°9.553 2°37.072 89.3 2.5 60 18.5
2005-04-06 09:46:35 51°9.574 2°37.126 86.2 2.4 57 18.5
2005-04-06 09:47:37 51°9.596 2°37.179 84 2.3 57 18.5
2005-04-06 09:48:37 51°9.62 2°37.23 83 2.4 53 18.6
2005-04-06 09:49:37 51°9.644 2°37.28 83.5 2.4 52 18.6
2005-04-06 09:50:37 51°9.667 2°37.331 84.4 2.4 56 18.7
2005-04-06 09:51:37 51°9.689 2°37.383 85.1 2.5 57 18.6
2005-04-06 09:52:37 51°9.711 2°37.44 86.9 2.5 59 18.7
2005-04-06 09:53:37 51°9.733 2°37.497 92.6 2.6 59 18.7
2005-04-06 09:54:38 51°9.755 2°37.558 93.9 2.6 60 18.8
2005-04-06 09:55:37 51°9.777 2°37.617 91.3 2.6 61 18.5
2005-04-06 09:56:37 51°9.798 2°37.676 89.6 2.6 60 18.9
2005-04-06 09:57:37 51°9.821 2°37.736 85.4 2.7 59 18.7
2005-04-06 09:58:37 51°9.844 2°37.801 88 2.9 63 18.2
2005-04-06 09:59:37 51°9.866 2°37.869 90 2.9 64 18.9
2005-04-06 10:00:37 51°9.886 2°37.941 91.1 3.1 66 18.8
2005-04-06 10:01:37 51°9.907 2°38.017 93.6 3.2 66 18.9
2005-04-06 10:02:37 51°9.927 2°38.094 97.1 3.1 69 18.6
2005-04-06 10:03:37 51°9.945 2°38.17 96.7 3.1 69 18.6
2005-04-06 10:04:37 51°9.963 2°38.247 96.3 3.2 69 18.4
2005-04-06 10:05:37 51°9.983 2°38.325 94.1 3.2 67 18.1
2005-04-06 10:06:37 51°10.004 2°38.413 92.3 4.1 73 18.1
2005-04-06 10:07:37 51°10.023 2°38.528 94.6 4.8 77 18
2005-04-06 10:08:37 51°10.046 2°38.658 82.6 5.2 73 17.7
2005-04-06 10:09:37 51°10.072 2°38.794 88.6 5.4 75 17.6
2005-04-06 10:10:37 51°10.088 2°38.936 100.1 5.1 81 17.2
2005-04-06 10:11:37 51°10.1 2°39.049 105.8 4 78 17.1
2005-04-06 10:12:37 51°10.111 2°39.161 107.4 5.9 88 16.7
2005-04-06 10:13:37 51°10.107 2°39.381 105.1 10.6 94 16
2005-04-06 10:14:37 51°10.107 2°39.71 95 13 87 14.9
2005-04-06 10:15:37 51°10.121 2°40.061 94.3 13.3 88 14.2
2005-04-06 10:16:37 51°10.136 2°40.333 92.9 8.6 84 14
2005-04-06 10:17:37 51°10.133 2°40.496 115.8 5.1 95 13.7
2005-04-06 10:18:37 51°10.123 2°40.623 115.7 5.5 97 13.4
2005-04-06 10:19:37 51°10.127 2°40.886 94.6 13.8 88 12.9
2005-04-06 10:20:37 51°10.169 2°41.27 79.8 15.1 74 12.3
2005-04-06 10:21:37 51°10.256 2°41.654 74.3 15.2 71 12.1
2005-04-06 10:22:37 51°10.344 2°42.03 73.9 15.2 69 12
2005-04-06 10:23:37 51°10.432 2°42.404 74 15.2 70 11.9
2005-04-06 10:24:37 51°10.521 2°42.787 74.7 15.3 69 11.9
2005-04-06 10:25:37 51°10.608 2°43.164 74.1 15.2 69 11.9
2005-04-06 10:26:37 51°10.677 2°43.551 78.5 15.1 72 11.8
2005-04-06 10:27:37 51°10.779 2°43.916 68.5 15.1 64 11.9
2005-04-06 10:28:37 51°10.894 2°44.275 67.7 15.2 63 12.1
2005-04-06 10:29:37 51°11.015 2°44.627 64.5 15.4 59 12.4
2005-04-06 10:30:37 51°11.145 2°44.981 65.2 15.4 60 12.8
2005-04-06 10:31:37 51°11.273 2°45.329 64.5 15.2 59 13.2
2005-04-06 10:32:37 51°11.396 2°45.679 65.1 15.3 60 13.6
2005-04-06 10:33:37 51°11.522 2°46.032 64.9 15.3 60 13.9
2005-04-06 10:34:37 51°11.648 2°46.387 66 15.4 62 14.2
2005-04-06 10:35:37 51°11.776 2°46.74 65 15.4 59 14.4
2005-04-06 10:36:37 51°11.902 2°47.092 64.5 15.3 61 14.4
2005-04-06 10:37:37 51°12.027 2°47.446 65 15.4 60 14.7
2005-04-06 10:38:37 51°12.157 2°47.802 64.8 15.5 60 14.6
2005-04-06 10:39:37 51°12.287 2°48.151 62.7 15.3 58 14.5
2005-04-06 10:40:37 51°12.421 2°48.499 64 15.4 59 14.5
2005-04-06 10:41:37 51°12.561 2°48.838 59.7 15.4 54 14.4
2005-04-06 10:42:37 51°12.7 2°49.182 63.8 15.4 59 14.3
2005-04-06 10:43:37 51°12.83 2°49.535 65.8 15.5 61 14.1
2005-04-06 10:44:37 51°12.957 2°49.893 65.9 15.5 61 14
2005-04-06 10:45:37 51°13.087 2°50.249 64 15.6 59 13.8
2005-04-06 10:46:37 51°13.216 2°50.606 64.5 15.4 60 13.7
2005-04-06 10:47:37 51°13.341 2°50.961 66 15.7 61 13.6
2005-04-06 10:48:37 51°13.471 2°51.325 64.7 15.7 61 13.5
2005-04-06 10:49:37 51°13.599 2°51.682 65 15.6 61 13.4
2005-04-06 10:50:37 51°13.73 2°52.04 65.5 15.6 61 13.3
2005-04-06 10:51:37 51°13.861 2°52.405 64.9 15.8 61 13.2
2005-04-06 10:52:37 51°13.99 2°52.765 65.9 15.7 61 13
2005-04-06 10:53:37 51°14.121 2°53.131 64.9 15.7 59 12.6
2005-04-06 10:54:37 51°14.241 2°53.499 70.3 15.5 64 12.2
2005-04-06 10:55:37 51°14.349 2°53.864 71.8 15.4 65 12.2
2005-04-06 10:56:37 51°14.455 2°54.236 76.9 15.5 65 12.1
2005-04-06 10:57:37 51°14.473 2°54.597 105.2 13.3 98 13
2005-04-06 10:58:37 51°14.414 2°54.903 121 10.5 111 13
2005-04-06 10:59:37 51°14.337 2°55.114 135.7 8.6 131 13.1
2005-04-06 11:00:37 51°14.246 2°55.285 134.6 8 132 13.1
2005-04-06 11:01:37 51°14.15 2°55.399 153.9 6.6 152 12.8
2005-04-06 11:02:37 51°14.057 2°55.471 158.1 6.1 154 12
2005-04-06 11:03:37 51°13.967 2°55.539 158.6 6 154 12.3
2005-04-06 11:04:37 51°13.875 2°55.606 159.7 6.1 156 12.4
2005-04-06 11:05:37 51°13.783 2°55.679 152.8 6.2 148 12.2
2005-04-06 11:06:36 51°13.712 2°55.788 132.1 5.7 129 14.2
2005-04-06 11:07:37 51°13.663 2°55.898 130.1 4.5 126 11.4
2005-04-06 11:08:37 51°13.626 2°55.991 123.7 4 118 11.6
2005-04-06 11:09:37 51°13.606 2°56.07 118.9 3 113 10.7
2005-04-06 11:10:37 51°13.596 2°56.1 132 0.3 145 9.5
2005-04-06 11:11:37 51°13.597 2°56.101 126 0.2 144 5.3
2005-04-06 11:12:38 51°13.595 2°56.105 126.2 -999 153 -999